createdAt,value
2023-11-30T00:01:39.200Z,2.12
2023-11-30T00:04:26.061Z,2.12
2023-11-30T00:07:13.769Z,2.13
2023-11-30T00:10:00.653Z,2.12
2023-11-30T00:12:47.527Z,2.11
2023-11-30T00:15:34.610Z,2.10
2023-11-30T00:18:21.542Z,2.09
2023-11-30T00:21:08.544Z,2.09
2023-11-30T00:23:55.446Z,2.10
2023-11-30T00:26:43.737Z,2.09
2023-11-30T00:29:30.570Z,2.07
2023-11-30T00:32:17.492Z,2.07
2023-11-30T00:35:04.631Z,2.06
2023-11-30T00:37:51.475Z,2.05
2023-11-30T00:40:41.285Z,2.03
2023-11-30T00:43:28.126Z,2.04
2023-11-30T00:46:17.015Z,2.04
2023-11-30T00:49:03.934Z,2.04
2023-11-30T00:51:50.838Z,2.04
2023-11-30T00:54:37.696Z,2.04
2023-11-30T00:57:24.690Z,2.04
2023-11-30T01:00:11.904Z,2.01
2023-11-30T01:02:58.922Z,2.03
2023-11-30T01:05:45.819Z,2.03
2023-11-30T01:08:32.661Z,2.02
2023-11-30T01:11:19.543Z,2.02
2023-11-30T01:14:06.445Z,2.03
2023-11-30T01:16:53.672Z,1.99
2023-11-30T01:19:40.556Z,1.99
2023-11-30T01:22:27.405Z,2.00
2023-11-30T01:25:15.030Z,1.98
2023-11-30T01:28:01.991Z,1.99
2023-11-30T01:30:48.975Z,1.99
2023-11-30T01:33:37.825Z,1.98
2023-11-30T01:36:24.749Z,1.97
2023-11-30T01:39:11.786Z,1.97
2023-11-30T01:41:58.689Z,1.98
2023-11-30T01:44:45.588Z,1.97
2023-11-30T01:47:33.214Z,1.96
2023-11-30T01:50:20.351Z,1.97
2023-11-30T01:53:07.397Z,1.95
2023-11-30T01:55:54.631Z,1.96
2023-11-30T01:58:41.943Z,1.95
2023-11-30T02:01:29.045Z,1.95
2023-11-30T02:04:16.708Z,1.93
2023-11-30T02:07:03.987Z,1.92
2023-11-30T02:09:51.298Z,1.92
2023-11-30T02:12:38.180Z,1.91
2023-11-30T02:15:25.095Z,1.91
2023-11-30T02:18:12.053Z,1.92
2023-11-30T02:20:58.990Z,1.92
2023-11-30T02:23:45.932Z,1.92
2023-11-30T02:26:32.809Z,1.89
2023-11-30T02:29:19.962Z,1.91
2023-11-30T02:32:06.944Z,1.89
2023-11-30T02:34:53.777Z,1.90
2023-11-30T02:37:40.621Z,1.89
2023-11-30T02:40:27.481Z,1.89
2023-11-30T02:43:14.334Z,1.88
2023-11-30T02:46:01.245Z,1.87
2023-11-30T02:48:48.208Z,1.85
2023-11-30T02:51:36.296Z,1.87
2023-11-30T02:54:23.242Z,1.85
2023-11-30T02:57:10.221Z,1.86
2023-11-30T02:59:57.293Z,1.85
2023-11-30T03:02:44.280Z,1.86
2023-11-30T03:05:32.272Z,1.85
2023-11-30T03:08:19.280Z,1.85
2023-11-30T03:11:06.328Z,1.84
2023-11-30T03:13:53.421Z,1.83
2023-11-30T03:16:40.439Z,1.83
2023-11-30T03:19:27.940Z,1.82
2023-11-30T03:22:14.888Z,1.82
2023-11-30T03:25:01.837Z,1.80
2023-11-30T03:27:48.708Z,1.79
2023-11-30T03:30:35.747Z,1.78
2023-11-30T03:33:22.672Z,1.79
2023-11-30T03:36:09.915Z,1.78
2023-11-30T03:38:57.308Z,1.76
2023-11-30T03:41:44.285Z,1.77
2023-11-30T03:44:31.119Z,1.76
2023-11-30T03:47:17.991Z,1.78
2023-11-30T03:50:05.247Z,1.76
2023-11-30T03:52:52.273Z,1.75
2023-11-30T03:55:39.301Z,1.75
2023-11-30T03:58:26.140Z,1.73
2023-11-30T04:01:13.081Z,1.73
2023-11-30T04:04:00.094Z,1.67
2023-11-30T04:06:47.085Z,1.71
2023-11-30T04:09:37.341Z,1.69
2023-11-30T04:12:24.278Z,1.69
2023-11-30T04:15:11.359Z,1.71
2023-11-30T04:17:58.348Z,1.68
2023-11-30T04:20:45.345Z,1.69
2023-11-30T04:23:32.369Z,1.69
2023-11-30T04:26:19.230Z,1.67
2023-11-30T04:29:06.093Z,1.65
2023-11-30T04:31:52.940Z,1.66
2023-11-30T04:34:39.788Z,1.66
2023-11-30T04:37:26.654Z,1.64
2023-11-30T04:40:13.807Z,1.66
2023-11-30T04:43:00.966Z,1.65
2023-11-30T04:45:47.823Z,1.64
2023-11-30T04:48:34.757Z,1.61
2023-11-30T04:51:21.879Z,1.63
2023-11-30T04:54:08.813Z,1.62
2023-11-30T04:56:55.697Z,1.60
2023-11-30T04:59:42.561Z,1.59
2023-11-30T05:02:29.562Z,1.59
2023-11-30T05:05:16.513Z,1.59
2023-11-30T05:08:04.256Z,1.58
2023-11-30T05:10:51.132Z,1.58
2023-11-30T05:13:37.973Z,1.57
2023-11-30T05:16:24.960Z,1.55
2023-11-30T05:19:11.877Z,1.54
2023-11-30T05:21:58.832Z,1.55
2023-11-30T05:24:45.676Z,1.55
2023-11-30T05:27:32.594Z,1.55
2023-11-30T05:30:19.617Z,1.53
2023-11-30T05:33:07.815Z,1.51
2023-11-30T05:35:54.716Z,1.51
2023-11-30T05:38:41.562Z,1.51
2023-11-30T05:41:28.594Z,1.52
2023-11-30T05:44:15.460Z,1.50
2023-11-30T05:47:02.692Z,1.51
2023-11-30T05:49:49.704Z,1.51
2023-11-30T05:52:37.069Z,1.50
2023-11-30T05:55:23.972Z,1.49
2023-11-30T05:58:10.853Z,1.47
2023-11-30T06:00:58.480Z,1.46
2023-11-30T06:03:45.515Z,1.47
2023-11-30T06:06:32.541Z,1.46
2023-11-30T06:09:19.671Z,1.46
2023-11-30T06:12:06.638Z,1.46
2023-11-30T06:14:53.595Z,1.46
2023-11-30T06:17:40.499Z,1.46
2023-11-30T06:20:27.509Z,1.44
2023-11-30T06:23:14.519Z,1.44
2023-11-30T06:26:01.412Z,1.42
2023-11-30T06:28:48.397Z,1.34
2023-11-30T06:31:35.318Z,1.27
2023-11-30T06:34:22.204Z,1.20
2023-11-30T06:37:09.293Z,1.25
2023-11-30T06:39:56.144Z,1.35
2023-11-30T06:42:43.026Z,1.42
2023-11-30T06:45:29.957Z,1.47
2023-11-30T06:48:16.948Z,1.51
2023-11-30T06:51:07.519Z,1.50
2023-11-30T06:53:54.391Z,1.49
2023-11-30T06:56:41.296Z,1.47
2023-11-30T06:59:30.606Z,1.47
2023-11-30T07:02:18.999Z,1.45
2023-11-30T07:05:06.680Z,1.43
2023-11-30T07:07:53.631Z,1.43
2023-11-30T07:10:40.954Z,1.42
2023-11-30T07:13:28.613Z,1.40
2023-11-30T07:16:15.577Z,1.38
2023-11-30T07:19:02.569Z,1.36
2023-11-30T07:21:52.541Z,1.35
2023-11-30T07:24:39.511Z,1.33
2023-11-30T07:27:27.542Z,1.34
2023-11-30T07:30:14.683Z,1.33
2023-11-30T07:33:01.707Z,1.31
2023-11-30T07:35:51.772Z,1.31
2023-11-30T07:38:39.050Z,1.32
2023-11-30T07:41:25.911Z,1.31
2023-11-30T07:44:13.901Z,1.30
2023-11-30T07:47:01.005Z,1.31
2023-11-30T07:49:48.918Z,1.27
2023-11-30T07:52:38.670Z,1.28
2023-11-30T07:55:25.556Z,1.27
2023-11-30T07:58:12.408Z,1.26
2023-11-30T08:01:02.752Z,1.26
2023-11-30T08:03:49.803Z,1.27
2023-11-30T08:06:36.746Z,1.26
2023-11-30T08:09:24.634Z,1.26
2023-11-30T08:12:11.810Z,1.27
2023-11-30T08:14:58.824Z,1.27
2023-11-30T08:17:47.357Z,1.27
2023-11-30T08:20:34.263Z,1.26
2023-11-30T08:23:21.709Z,1.26
2023-11-30T08:26:08.773Z,1.33
2023-11-30T08:28:55.728Z,1.42
2023-11-30T08:31:43.690Z,1.46
2023-11-30T08:34:30.600Z,1.48
2023-11-30T08:37:17.557Z,1.50
2023-11-30T08:40:06.136Z,1.51
2023-11-30T08:42:53.018Z,1.52
2023-11-30T08:45:41.458Z,1.53
2023-11-30T08:48:30.222Z,1.53
2023-11-30T08:51:17.203Z,1.53
2023-11-30T08:54:04.493Z,1.52
2023-11-30T08:56:51.360Z,1.51
2023-11-30T08:59:38.229Z,1.51
2023-11-30T09:02:25.706Z,1.49
2023-11-30T09:05:13.271Z,1.50
2023-11-30T09:08:00.190Z,1.49
2023-11-30T09:10:47.044Z,1.49
2023-11-30T09:13:34.299Z,1.48
2023-11-30T09:16:25.363Z,1.50
2023-11-30T09:19:12.181Z,1.50
2023-11-30T09:21:59.046Z,1.50
2023-11-30T09:24:45.936Z,1.50
2023-11-30T09:27:33.387Z,1.51
2023-11-30T09:30:20.338Z,1.51
2023-11-30T09:33:07.828Z,1.52
2023-11-30T09:35:54.772Z,1.52
2023-11-30T09:38:42.256Z,1.52
2023-11-30T09:41:29.975Z,1.52
2023-11-30T09:44:17.309Z,1.53
2023-11-30T09:47:04.337Z,1.53
2023-11-30T09:49:51.187Z,1.53
2023-11-30T09:52:38.605Z,1.54
2023-11-30T09:55:27.483Z,1.54
2023-11-30T09:58:16.272Z,1.55
2023-11-30T10:01:03.461Z,1.55
2023-11-30T10:03:50.741Z,1.55
2023-11-30T10:06:37.781Z,1.53
2023-11-30T10:09:24.900Z,1.51
2023-11-30T10:12:11.829Z,1.48
2023-11-30T10:15:02.220Z,1.46
2023-11-30T10:17:50.161Z,1.46
2023-11-30T10:20:38.616Z,1.48
2023-11-30T10:23:25.483Z,1.49
2023-11-30T10:26:14.234Z,1.52
2023-11-30T10:29:04.263Z,1.56
2023-11-30T10:31:54.572Z,1.58
2023-11-30T10:34:45.671Z,1.63
2023-11-30T10:37:46.538Z,1.67
2023-11-30T10:40:33.416Z,1.73
2023-11-30T10:43:20.394Z,1.77
2023-11-30T10:46:08.792Z,1.78
2023-11-30T10:48:56.628Z,1.81
2023-11-30T10:51:43.696Z,1.85
2023-11-30T10:54:38.538Z,1.87
2023-11-30T10:57:25.773Z,1.88
2023-11-30T11:00:16.989Z,1.90
2023-11-30T11:03:10.829Z,1.91
2023-11-30T11:05:58.097Z,1.97
2023-11-30T11:09:06.532Z,2.02
2023-11-30T11:12:00.498Z,2.02
2023-11-30T11:14:49.867Z,2.00
2023-11-30T11:17:49.677Z,1.98
2023-11-30T11:20:37.289Z,1.98
2023-11-30T11:23:24.454Z,1.98
2023-11-30T11:26:14.761Z,1.98
2023-11-30T11:29:01.712Z,1.98
2023-11-30T11:31:48.621Z,2.01
2023-11-30T11:34:35.479Z,2.02
2023-11-30T11:37:22.481Z,2.05
2023-11-30T11:40:09.593Z,2.05
2023-11-30T11:42:56.610Z,2.06
2023-11-30T11:45:44.122Z,2.09
2023-11-30T11:48:31.080Z,2.10
2023-11-30T11:51:17.995Z,2.10
2023-11-30T11:54:04.968Z,2.10
2023-11-30T11:56:52.955Z,2.13
2023-11-30T11:59:43.176Z,2.13
2023-11-30T12:02:31.694Z,2.11
2023-11-30T12:05:23.181Z,2.16
2023-11-30T12:08:10.120Z,2.16
2023-11-30T12:10:57.263Z,2.20
2023-11-30T12:13:44.150Z,2.24
2023-11-30T12:16:31.104Z,2.28
2023-11-30T12:19:21.008Z,2.31
2023-11-30T12:22:08.242Z,2.35
2023-11-30T12:24:55.209Z,2.37
2023-11-30T12:27:42.200Z,2.37
2023-11-30T12:30:29.095Z,2.39
2023-11-30T12:33:16.045Z,2.40
2023-11-30T12:36:02.945Z,2.42
2023-11-30T12:38:50.971Z,2.42
2023-11-30T12:41:38.031Z,2.42
2023-11-30T12:44:24.961Z,2.42
2023-11-30T12:47:12.626Z,2.41
2023-11-30T12:49:59.520Z,2.42
2023-11-30T12:52:46.455Z,2.42
2023-11-30T12:55:34.086Z,2.42
2023-11-30T12:58:21.074Z,2.40
2023-11-30T13:01:07.956Z,2.41
2023-11-30T13:03:55.594Z,2.40
2023-11-30T13:06:44.206Z,2.40
2023-11-30T13:09:33.617Z,2.39
2023-11-30T13:12:21.620Z,2.38
2023-11-30T13:15:11.642Z,2.37
2023-11-30T13:17:58.859Z,2.34
2023-11-30T13:20:45.775Z,2.35
2023-11-30T13:23:32.615Z,2.33
2023-11-30T13:26:19.561Z,2.33
2023-11-30T13:29:06.417Z,2.32
2023-11-30T13:31:53.261Z,2.32
2023-11-30T13:34:40.225Z,2.31
2023-11-30T13:37:27.079Z,2.31
2023-11-30T13:40:14.013Z,2.29
2023-11-30T13:43:00.926Z,2.29
2023-11-30T13:45:47.958Z,2.30
2023-11-30T13:48:35.062Z,2.30
2023-11-30T13:51:22.100Z,2.29
2023-11-30T13:54:09.077Z,2.29
2023-11-30T13:56:56.072Z,2.29
2023-11-30T13:59:43.060Z,2.29
2023-11-30T14:02:29.913Z,2.28
2023-11-30T14:05:16.918Z,2.31
2023-11-30T14:08:04.015Z,2.29
2023-11-30T14:10:52.243Z,2.30
2023-11-30T14:13:39.784Z,2.31
2023-11-30T14:16:27.585Z,2.30
2023-11-30T14:19:14.726Z,2.32
2023-11-30T14:22:01.629Z,2.33
2023-11-30T14:24:48.599Z,2.31
2023-11-30T14:27:36.457Z,2.33
2023-11-30T14:30:23.360Z,2.32
2023-11-30T14:33:12.580Z,2.32
2023-11-30T14:36:00.948Z,2.32
2023-11-30T14:38:47.809Z,2.34
2023-11-30T14:41:34.672Z,2.34
2023-11-30T14:44:21.584Z,2.33
2023-11-30T14:47:11.062Z,2.35
2023-11-30T14:49:57.965Z,2.34
2023-11-30T14:52:45.836Z,2.34
2023-11-30T14:55:33.514Z,2.34
2023-11-30T14:58:21.246Z,2.35
2023-11-30T15:01:12.212Z,2.33
2023-11-30T15:03:59.656Z,2.34
2023-11-30T15:06:46.597Z,2.35
2023-11-30T15:09:33.786Z,2.35
2023-11-30T15:12:20.786Z,2.37
2023-11-30T15:15:15.323Z,2.36
2023-11-30T15:18:03.483Z,2.37
2023-11-30T15:20:50.422Z,2.37
2023-11-30T15:23:37.421Z,2.36
2023-11-30T15:26:24.353Z,2.38
2023-11-30T15:29:11.335Z,2.39
2023-11-30T15:31:58.410Z,2.40
2023-11-30T15:34:45.561Z,2.42
2023-11-30T15:37:32.931Z,2.50
2023-11-30T15:40:22.052Z,2.55
2023-11-30T15:43:09.287Z,2.63
2023-11-30T15:45:56.199Z,2.67
2023-11-30T15:48:43.582Z,2.69
2023-11-30T15:51:30.590Z,2.71
2023-11-30T15:54:17.455Z,2.70
2023-11-30T15:57:04.557Z,2.69
2023-11-30T15:59:51.504Z,2.66
2023-11-30T16:02:39.544Z,2.68
2023-11-30T16:05:26.494Z,2.65
2023-11-30T16:08:13.390Z,2.64
2023-11-30T16:11:00.280Z,2.63
2023-11-30T16:13:47.116Z,2.60
2023-11-30T16:16:34.970Z,2.60
2023-11-30T16:19:22.087Z,2.61
2023-11-30T16:22:09.545Z,2.58
2023-11-30T16:24:56.548Z,2.59
2023-11-30T16:27:43.923Z,2.60
2023-11-30T16:30:31.090Z,2.59
2023-11-30T16:33:19.031Z,2.59
2023-11-30T16:36:06.337Z,2.58
2023-11-30T16:38:53.208Z,2.59
2023-11-30T16:41:41.000Z,2.60
2023-11-30T16:44:28.006Z,2.60
2023-11-30T16:47:15.420Z,2.59
2023-11-30T16:50:04.154Z,2.58
2023-11-30T16:52:51.027Z,2.59
2023-11-30T16:55:38.122Z,2.59
2023-11-30T16:58:30.180Z,2.58
2023-11-30T17:01:17.059Z,2.58
2023-11-30T17:04:07.122Z,2.56
2023-11-30T17:06:54.463Z,2.57
2023-11-30T17:09:41.540Z,2.57
2023-11-30T17:12:28.408Z,2.57
2023-11-30T17:15:15.459Z,2.57
2023-11-30T17:18:02.507Z,2.57
2023-11-30T17:20:49.421Z,2.57
2023-11-30T17:23:38.820Z,2.56
2023-11-30T17:26:25.665Z,2.57
2023-11-30T17:29:13.415Z,2.55
2023-11-30T17:32:00.800Z,2.57
2023-11-30T17:34:47.829Z,2.58
2023-11-30T17:37:34.835Z,2.58
2023-11-30T17:40:22.485Z,2.57
2023-11-30T17:43:09.474Z,2.53
2023-11-30T17:45:57.650Z,2.52
2023-11-30T17:48:44.601Z,2.52
2023-11-30T17:51:31.558Z,2.52
2023-11-30T17:54:18.671Z,2.51
2023-11-30T17:57:05.554Z,2.51
2023-11-30T17:59:54.197Z,2.51
2023-11-30T18:02:41.139Z,2.51
2023-11-30T18:05:28.065Z,2.50
2023-11-30T18:08:15.573Z,2.51
2023-11-30T18:11:02.457Z,2.50
2023-11-30T18:13:49.284Z,2.51
2023-11-30T18:16:36.148Z,2.51
2023-11-30T18:19:23.148Z,2.51
2023-11-30T18:22:10.024Z,2.52
2023-11-30T18:24:57.066Z,2.52
2023-11-30T18:27:44.042Z,2.52
2023-11-30T18:30:31.518Z,2.52
2023-11-30T18:33:18.675Z,2.54
2023-11-30T18:36:06.154Z,2.53
2023-11-30T18:38:53.581Z,2.52
2023-11-30T18:41:40.978Z,2.52
2023-11-30T18:44:27.834Z,2.54
2023-11-30T18:47:17.229Z,2.54
2023-11-30T18:50:08.187Z,2.55
2023-11-30T18:52:55.072Z,2.55
2023-11-30T18:55:41.937Z,2.56
2023-11-30T18:58:29.250Z,2.56
2023-11-30T19:01:16.567Z,2.56
2023-11-30T19:04:03.758Z,2.56
2023-11-30T19:06:50.777Z,2.58
2023-11-30T19:09:37.699Z,2.58
2023-11-30T19:12:24.557Z,2.58
2023-11-30T19:15:11.811Z,2.58
2023-11-30T19:18:01.181Z,2.58
2023-11-30T19:20:48.417Z,2.59
2023-11-30T19:23:35.282Z,2.59
2023-11-30T19:26:22.141Z,2.59
2023-11-30T19:29:11.310Z,2.59
2023-11-30T19:31:58.197Z,2.58
2023-11-30T19:34:45.061Z,2.59
2023-11-30T19:37:32.035Z,2.60
2023-11-30T19:40:19.002Z,2.60
2023-11-30T19:43:06.643Z,2.59
2023-11-30T19:45:55.518Z,2.58
2023-11-30T19:48:45.421Z,2.60
2023-11-30T19:51:33.663Z,2.59
2023-11-30T19:54:20.634Z,2.59
2023-11-30T19:57:07.591Z,2.58
2023-11-30T19:59:54.529Z,2.57
2023-11-30T20:02:41.576Z,2.57
2023-11-30T20:05:28.609Z,2.56
2023-11-30T20:08:16.235Z,2.57
2023-11-30T20:11:06.561Z,2.56
2023-11-30T20:13:53.409Z,2.57
2023-11-30T20:16:43.520Z,2.56
2023-11-30T20:19:30.482Z,2.54
2023-11-30T20:22:17.355Z,2.53
2023-11-30T20:25:05.304Z,2.55
2023-11-30T20:27:52.236Z,2.55
2023-11-30T20:30:39.318Z,2.54
2023-11-30T20:33:26.214Z,2.54
2023-11-30T20:36:13.192Z,2.53
2023-11-30T20:39:00.031Z,2.53
2023-11-30T20:41:46.970Z,2.54
2023-11-30T20:44:33.823Z,2.54
2023-11-30T20:47:27.316Z,2.53
2023-11-30T20:50:14.174Z,2.52
2023-11-30T20:53:01.320Z,2.52
2023-11-30T20:55:48.269Z,2.54
2023-11-30T20:58:36.057Z,2.52
2023-11-30T21:01:23.338Z,2.52
2023-11-30T21:04:10.392Z,2.53
2023-11-30T21:06:57.374Z,2.53
2023-11-30T21:09:44.279Z,2.53
2023-11-30T21:12:31.310Z,2.52
2023-11-30T21:15:18.198Z,2.54
2023-11-30T21:18:07.346Z,2.54
2023-11-30T21:20:54.295Z,2.53
2023-11-30T21:23:41.216Z,2.53
2023-11-30T21:26:28.142Z,2.54
2023-11-30T21:29:15.003Z,2.54
2023-11-30T21:32:03.522Z,2.53
2023-11-30T21:34:50.439Z,2.53
2023-11-30T21:37:37.401Z,2.53
2023-11-30T21:40:24.323Z,2.53
2023-11-30T21:43:11.163Z,2.54
2023-11-30T21:45:58.311Z,2.53
2023-11-30T21:48:45.329Z,2.53
2023-11-30T21:51:33.119Z,2.54
2023-11-30T21:54:20.878Z,2.52
2023-11-30T21:57:08.168Z,2.53
2023-11-30T21:59:55.059Z,2.53
2023-11-30T22:02:45.626Z,2.52
2023-11-30T22:05:36.491Z,2.53
2023-11-30T22:08:24.183Z,2.53
2023-11-30T22:11:11.032Z,2.54
2023-11-30T22:13:57.901Z,2.52
2023-11-30T22:16:46.102Z,2.51
2023-11-30T22:19:33.117Z,2.51
2023-11-30T22:22:20.159Z,2.52
2023-11-30T22:25:07.515Z,2.52
2023-11-30T22:27:55.147Z,2.53
2023-11-30T22:30:42.039Z,2.52
2023-11-30T22:33:28.938Z,2.51
2023-11-30T22:36:15.907Z,2.51
2023-11-30T22:39:02.998Z,2.52
2023-11-30T22:41:50.878Z,2.52
2023-11-30T22:44:38.042Z,2.52
2023-11-30T22:47:25.995Z,2.47
2023-11-30T22:50:12.961Z,2.50
2023-11-30T22:53:00.019Z,2.51
2023-11-30T22:55:48.776Z,2.50
2023-11-30T22:58:36.337Z,2.52
2023-11-30T23:01:23.495Z,2.51
2023-11-30T23:04:10.781Z,2.49
2023-11-30T23:06:57.890Z,2.51
2023-11-30T23:09:44.885Z,2.51
2023-11-30T23:12:31.816Z,2.49
2023-11-30T23:15:18.675Z,2.52
2023-11-30T23:18:05.583Z,2.50
2023-11-30T23:20:52.767Z,2.51
2023-11-30T23:23:39.687Z,2.52
2023-11-30T23:26:26.548Z,2.51
2023-11-30T23:29:13.426Z,2.52
2023-11-30T23:32:00.261Z,2.52
2023-11-30T23:34:47.464Z,2.52
2023-11-30T23:37:34.311Z,2.53
2023-11-30T23:40:21.139Z,2.53
2023-11-30T23:43:08.239Z,2.54
2023-11-30T23:45:55.144Z,2.54
2023-11-30T23:48:42.033Z,2.54
2023-11-30T23:51:28.968Z,2.53
2023-11-30T23:54:15.814Z,2.52
2023-11-30T23:57:03.017Z,2.54
2023-11-30T23:59:49.992Z,2.52
